sensor_id;sensor_type;location;lat;lon;timestamp;temperature;humidity
27823;DHT22;29019;47.630;8.262;2023-05-09T17:42:34;21.10;59.70
27823;DHT22;29019;47.630;8.262;2023-05-09T17:46:53;20.60;61.00
27823;DHT22;29019;47.630;8.262;2023-05-09T17:51:12;20.40;60.20
27823;DHT22;29019;47.630;8.262;2023-05-09T17:55:31;20.40;61.00
27823;DHT22;29019;47.630;8.262;2023-05-09T17:59:51;20.40;60.60
27823;DHT22;29019;47.630;8.262;2023-05-09T18:04:10;20.40;60.70
27823;DHT22;29019;47.630;8.262;2023-05-09T18:09:07;20.50;63.10
27823;DHT22;29019;47.630;8.262;2023-05-09T18:13:08;20.50;63.10
27823;DHT22;29019;47.630;8.262;2023-05-09T18:17:08;20.60;63.60
27823;DHT22;29019;47.630;8.262;2023-05-09T18:21:09;20.70;64.60
27823;DHT22;29019;47.630;8.262;2023-05-09T18:25:10;20.70;64.10
27823;DHT22;29019;47.630;8.262;2023-05-09T18:29:11;20.80;65.50
27823;DHT22;29019;47.630;8.262;2023-05-09T18:33:11;20.90;64.90
27823;DHT22;29019;47.630;8.262;2023-05-09T18:37:12;20.90;65.20
27823;DHT22;29019;47.630;8.262;2023-05-09T18:41:13;21.00;64.60
27823;DHT22;29019;47.630;8.262;2023-05-09T18:45:15;20.90;64.20
27823;DHT22;29019;47.630;8.262;2023-05-09T18:49:15;20.90;62.50
27823;DHT22;29019;47.630;8.262;2023-05-09T18:53:17;20.90;60.50
27823;DHT22;29019;47.630;8.262;2023-05-09T18:57:18;21.30;60.40
27823;DHT22;29019;47.630;8.262;2023-05-09T19:01:19;21.70;59.30
27823;DHT22;29019;47.630;8.262;2023-05-09T19:05:20;21.90;58.50
27823;DHT22;29019;47.630;8.262;2023-05-09T19:09:21;22.20;57.40
27823;DHT22;29019;47.630;8.262;2023-05-09T19:13:21;22.40;57.60
27823;DHT22;29019;47.630;8.262;2023-05-09T19:17:22;22.40;57.00
27823;DHT22;29019;47.630;8.262;2023-05-09T19:21:23;22.50;57.00
27823;DHT22;29019;47.630;8.262;2023-05-09T19:25:25;22.50;57.00
27823;DHT22;29019;47.630;8.262;2023-05-09T19:29:25;22.50;57.00
27823;DHT22;29019;47.630;8.262;2023-05-09T19:33:26;22.50;57.20
27823;DHT22;29019;47.630;8.262;2023-05-09T19:37:27;22.50;56.90
27823;DHT22;29019;47.630;8.262;2023-05-09T19:41:27;22.50;56.90
27823;DHT22;29019;47.630;8.262;2023-05-09T19:45:28;22.50;56.80
27823;DHT22;29019;47.630;8.262;2023-05-09T19:49:29;22.50;56.50
27823;DHT22;29019;47.630;8.262;2023-05-09T19:53:29;22.50;56.30
27823;DHT22;29019;47.630;8.262;2023-05-09T19:57:30;22.50;56.50
27823;DHT22;29019;47.630;8.262;2023-05-09T20:01:31;22.50;56.40
27823;DHT22;29019;47.630;8.262;2023-05-09T20:05:32;22.60;56.00
27823;DHT22;29019;47.630;8.262;2023-05-09T20:09:32;22.60;56.10
27823;DHT22;29019;47.630;8.262;2023-05-09T20:13:33;22.60;56.20
27823;DHT22;29019;47.630;8.262;2023-05-09T20:17:34;22.60;56.10
27823;DHT22;29019;47.630;8.262;2023-05-09T20:21:34;22.60;56.20
27823;DHT22;29019;47.630;8.262;2023-05-09T20:25:35;22.60;56.10
27823;DHT22;29019;47.630;8.262;2023-05-09T20:29:35;22.60;56.10
27823;DHT22;29019;47.630;8.262;2023-05-09T20:33:36;22.60;56.40
27823;DHT22;29019;47.630;8.262;2023-05-09T20:37:37;22.50;56.30
27823;DHT22;29019;47.630;8.262;2023-05-09T20:41:38;22.40;56.80
27823;DHT22;29019;47.630;8.262;2023-05-09T20:45:38;22.20;57.30
27823;DHT22;29019;47.630;8.262;2023-05-09T20:49:39;22.20;57.20
27823;DHT22;29019;47.630;8.262;2023-05-09T20:53:39;22.20;57.40
27823;DHT22;29019;47.630;8.262;2023-05-09T20:57:40;22.10;57.30
27823;DHT22;29019;47.630;8.262;2023-05-09T21:01:41;22.40;57.10
27823;DHT22;29019;47.630;8.262;2023-05-09T21:05:43;22.30;56.60
27823;DHT22;29019;47.630;8.262;2023-05-09T21:09:45;22.00;57.10
27823;DHT22;29019;47.630;8.262;2023-05-09T21:13:46;21.90;57.70
27823;DHT22;29019;47.630;8.262;2023-05-09T21:17:47;21.80;58.10
27823;DHT22;29019;47.630;8.262;2023-05-09T21:21:47;22.00;57.50
27823;DHT22;29019;47.630;8.262;2023-05-09T21:25:48;21.90;57.60
27823;DHT22;29019;47.630;8.262;2023-05-09T21:29:49;21.80;57.90
27823;DHT22;29019;47.630;8.262;2023-05-09T21:33:49;21.70;58.60
27823;DHT22;29019;47.630;8.262;2023-05-09T21:37:51;21.60;58.00
27823;DHT22;29019;47.630;8.262;2023-05-09T21:41:52;21.60;58.10
27823;DHT22;29019;47.630;8.262;2023-05-09T21:45:52;21.50;58.30
27823;DHT22;29019;47.630;8.262;2023-05-09T21:50:55;21.40;58.40
27823;DHT22;29019;47.630;8.262;2023-05-09T21:54:56;21.40;58.90
27823;DHT22;29019;47.630;8.262;2023-05-09T21:58:57;21.30;58.90
27823;DHT22;29019;47.630;8.262;2023-05-09T22:02:58;21.30;59.00
27823;DHT22;29019;47.630;8.262;2023-05-09T22:06:58;21.10;59.00
27823;DHT22;29019;47.630;8.262;2023-05-09T22:10:59;21.10;59.10
27823;DHT22;29019;47.630;8.262;2023-05-09T22:15:00;21.00;59.20
27823;DHT22;29019;47.630;8.262;2023-05-09T22:19:00;21.00;59.30
27823;DHT22;29019;47.630;8.262;2023-05-09T22:23:01;21.00;59.30
27823;DHT22;29019;47.630;8.262;2023-05-09T22:27:01;20.90;59.30
27823;DHT22;29019;47.630;8.262;2023-05-09T22:31:05;20.90;59.30
27823;DHT22;29019;47.630;8.262;2023-05-09T22:35:06;20.90;59.30
27823;DHT22;29019;47.630;8.262;2023-05-09T22:39:07;20.90;59.30
27823;DHT22;29019;47.630;8.262;2023-05-09T22:43:08;20.90;59.30
27823;DHT22;29019;47.630;8.262;2023-05-09T22:47:09;20.90;59.40
27823;DHT22;29019;47.630;8.262;2023-05-09T22:51:10;20.80;59.40
27823;DHT22;29019;47.630;8.262;2023-05-09T22:55:11;20.80;59.40
27823;DHT22;29019;47.630;8.262;2023-05-09T22:59:12;20.80;59.40
27823;DHT22;29019;47.630;8.262;2023-05-09T23:03:13;20.80;59.40
27823;DHT22;29019;47.630;8.262;2023-05-09T23:07:13;20.80;59.40
27823;DHT22;29019;47.630;8.262;2023-05-09T23:11:15;20.80;59.40
27823;DHT22;29019;47.630;8.262;2023-05-09T23:15:15;20.80;59.40
27823;DHT22;29019;47.630;8.262;2023-05-09T23:19:16;20.80;59.30
27823;DHT22;29019;47.630;8.262;2023-05-09T23:23:17;20.80;59.30
27823;DHT22;29019;47.630;8.262;2023-05-09T23:27:17;20.80;59.30
27823;DHT22;29019;47.630;8.262;2023-05-09T23:31:18;20.80;59.30
27823;DHT22;29019;47.630;8.262;2023-05-09T23:35:18;20.80;59.80
27823;DHT22;29019;47.630;8.262;2023-05-09T23:39:20;20.80;59.30
27823;DHT22;29019;47.630;8.262;2023-05-09T23:43:21;20.80;59.30
27823;DHT22;29019;47.630;8.262;2023-05-09T23:47:22;20.80;59.30
27823;DHT22;29019;47.630;8.262;2023-05-09T23:51:22;20.80;59.20
27823;DHT22;29019;47.630;8.262;2023-05-09T23:55:23;20.80;59.20
27823;DHT22;29019;47.630;8.262;2023-05-09T23:59:24;20.80;59.20
